Time;durP1;ratioP1;P1;durP2;ratioP2;P2;SDS_P1;SDS_P2;PMS_P1;PMS_P2;Temp;Humidity;BMP_temperature;BMP_pressure;BME280_temperature;BME280_humidity;BME280_pressure;Samples;Min_cycle;Max_cycle;Signal;HPM_P1;HPM_P2
2024/01/10 00:02:33;;;;;;;12.90;9.87;;;;;;;-1.61;37.37;100370.97;10443625;28;20242;-74
2024/01/10 00:07:36;;;;;;;18.47;11.23;;;;;;;-1.56;37.44;100405.66;10441768;28;20243;-74
2024/01/10 00:12:38;;;;;;;20.00;10.97;;;;;;;-2.13;37.91;100521.69;10445626;28;20303;-74
2024/01/10 00:17:40;;;;;;;18.20;11.27;;;;;;;-1.70;37.55;100402.16;10441790;28;20238;-74
2024/01/10 00:22:42;;;;;;;14.00;8.70;;;;;;;-1.96;37.81;100442.06;10451072;28;20230;-74
2024/01/10 00:27:44;;;;;;;10.53;7.20;;;;;;;-2.57;38.61;100496.13;10492125;28;20232;-74
2024/01/10 00:32:45;;;;;;;11.27;7.97;;;;;;;-1.16;37.81;100181.78;10472779;28;20445;-74
2024/01/10 00:37:47;;;;;;;12.20;7.93;;;;;;;-1.02;37.20;100189.63;10472150;28;20229;-74
2024/01/10 00:42:49;;;;;;;8.67;7.00;;;;;;;-1.52;37.84;100201.56;10473407;28;20237;-74
2024/01/10 00:47:51;;;;;;;12.97;7.70;;;;;;;-2.27;38.10;100431.59;10467397;28;20247;-73
2024/01/10 00:52:52;;;;;;;11.27;7.67;;;;;;;-1.43;37.28;100302.53;10464520;28;20230;-74
2024/01/10 00:57:54;;;;;;;10.97;8.07;;;;;;;-1.56;37.62;100319.03;10467675;28;20214;-74
2024/01/10 01:02:56;;;;;;;10.60;7.10;;;;;;;-1.28;37.94;100201.78;10450361;28;20762;-74
2024/01/10 01:07:57;;;;;;;12.37;7.70;;;;;;;-1.58;37.25;100422.41;10459624;28;20266;-75
2024/01/10 01:12:59;;;;;;;8.97;7.23;;;;;;;-1.02;37.10;100236.09;10455774;28;20325;-74
2024/01/10 01:18:01;;;;;;;11.90;8.90;;;;;;;-1.50;37.74;100325.69;10455815;28;20234;-75
2024/01/10 01:23:03;;;;;;;11.03;7.93;;;;;;;-1.46;37.85;100349.97;10461317;28;20234;-75
2024/01/10 01:28:05;;;;;;;10.50;7.33;;;;;;;-1.21;37.71;100292.41;10459877;28;20511;-74
2024/01/10 01:33:07;;;;;;;11.47;7.83;;;;;;;-1.32;37.74;100331.59;10459453;28;20239;-74
2024/01/10 01:38:08;;;;;;;14.53;9.10;;;;;;;-2.00;38.36;100418.72;10457906;28;20658;-75
2024/01/10 01:43:24;;;;;;;12.87;9.10;;;;;;;-1.69;38.44;100312.00;10460298;28;20314;-75
2024/01/10 01:48:26;;;;;;;12.77;8.73;;;;;;;-1.27;37.89;100333.97;10463864;28;20253;-74
2024/01/10 01:53:28;;;;;;;12.53;8.43;;;;;;;-2.36;39.36;100431.19;10456137;28;20760;-74
2024/01/10 01:58:30;;;;;;;12.63;7.67;;;;;;;-2.37;38.82;100481.94;10458613;28;20231;-74
2024/01/10 02:03:32;;;;;;;11.20;8.37;;;;;;;-1.62;37.99;100245.91;10448250;28;20250;-73
2024/01/10 02:08:35;;;;;;;11.33;8.60;;;;;;;-2.25;38.51;100367.66;10453843;28;20233;-73
2024/01/10 02:13:37;;;;;;;13.73;8.60;;;;;;;-0.72;37.50;100083.47;10443220;28;20259;-74
2024/01/10 02:18:39;;;;;;;13.30;8.40;;;;;;;-1.72;37.62;100365.50;10458202;28;20622;-73
2024/01/10 02:23:41;;;;;;;11.97;8.73;;;;;;;-1.11;37.83;100152.59;10442627;28;20245;-74
2024/01/10 02:28:42;;;;;;;13.73;8.53;;;;;;;-2.87;39.02;100530.00;10453738;28;20249;-72
2024/01/10 02:33:44;;;;;;;14.10;8.47;;;;;;;-1.45;38.53;100136.41;10444114;28;20326;-73
2024/01/10 02:38:47;;;;;;;10.97;8.43;;;;;;;-1.69;38.19;100270.84;10453759;28;20270;-73
2024/01/10 02:43:49;;;;;;;11.57;8.67;;;;;;;-2.44;39.50;100393.22;10440991;28;20237;-73
2024/01/10 02:48:50;;;;;;;11.83;8.30;;;;;;;-2.18;38.24;100465.19;10449945;28;20327;-73
2024/01/10 02:53:52;;;;;;;12.20;8.13;;;;;;;-1.89;38.59;100349.91;10447344;28;20236;-73
2024/01/10 02:58:54;;;;;;;9.60;7.90;;;;;;;-1.81;38.56;100309.16;10450186;28;20650;-73
2024/01/10 03:03:55;;;;;;;15.50;9.93;;;;;;;-1.26;38.13;100186.81;10448405;28;20632;-73
2024/01/10 03:08:57;;;;;;;16.63;9.67;;;;;;;-1.02;37.94;100105.56;10447902;28;20614;-73
2024/01/10 03:14:04;;;;;;;14.30;9.50;;;;;;;-1.45;38.26;100237.00;10451409;28;20247;-74
2024/01/10 03:19:05;;;;;;;12.83;8.53;;;;;;;-1.14;38.21;100134.41;10448289;28;20242;-73
2024/01/10 03:24:08;;;;;;;10.87;8.27;;;;;;;-1.56;37.90;100290.16;10436526;28;20324;-73
2024/01/10 03:29:09;;;;;;;11.00;8.53;;;;;;;-1.33;38.16;100219.63;10449043;28;20233;-73
2024/01/10 03:34:11;;;;;;;14.63;8.50;;;;;;;-0.00;36.49;100124.19;10448551;28;20253;-73
2024/01/10 03:39:13;;;;;;;12.67;8.47;;;;;;;-2.00;38.22;100388.09;10448938;28;20231;-73
2024/01/10 03:44:14;;;;;;;13.97;7.67;;;;;;;-1.51;38.10;100283.78;10445650;28;20258;-74
2024/01/10 03:49:16;;;;;;;11.23;8.67;;;;;;;-0.93;37.37;100203.97;10461656;28;20322;-73
2024/01/10 03:54:19;;;;;;;12.67;9.13;;;;;;;-1.56;38.22;100265.72;10455516;28;20223;-73
2024/01/10 03:59:21;;;;;;;17.07;9.80;;;;;;;-2.69;39.38;100468.78;10466149;28;20223;-73
2024/01/10 04:04:22;;;;;;;13.20;8.37;;;;;;;-1.92;38.41;100304.56;10458332;28;20591;-74
2024/01/10 04:09:24;;;;;;;11.80;8.10;;;;;;;-2.41;38.90;100432.38;10468565;28;20279;-73
2024/01/10 04:14:26;;;;;;;13.10;9.20;;;;;;;-1.55;38.04;100247.25;10457639;28;20254;-73
2024/01/10 04:19:27;;;;;;;11.07;8.23;;;;;;;-1.46;37.80;100302.72;10459444;28;20621;-73
2024/01/10 04:24:29;;;;;;;15.10;10.33;;;;;;;-1.55;38.06;100323.38;10451686;28;20715;-73
2024/01/10 04:29:31;;;;;;;13.63;9.87;;;;;;;-1.20;38.40;100191.66;10460432;28;20231;-74
2024/01/10 04:34:32;;;;;;;12.10;9.10;;;;;;;-2.08;39.10;100361.47;10454651;28;20229;-75
2024/01/10 04:39:34;;;;;;;18.07;10.03;;;;;;;-1.70;38.63;100284.88;10455106;28;20235;-74
2024/01/10 04:44:37;;;;;;;16.87;9.40;;;;;;;-1.62;39.13;100234.56;10454813;28;20227;-73
2024/01/10 04:49:38;;;;;;;16.30;10.27;;;;;;;-1.25;38.73;100150.88;10454063;28;20304;-73
2024/01/10 04:54:40;;;;;;;13.50;9.20;;;;;;;-1.96;39.07;100350.25;10459705;28;20237;-73
2024/01/10 04:59:42;;;;;;;14.10;9.13;;;;;;;-2.30;38.46;100514.75;10456592;28;20233;-73
2024/01/10 05:04:43;;;;;;;15.83;9.17;;;;;;;-3.51;40.30;100616.00;10462686;28;20781;-73
2024/01/10 05:09:45;;;;;;;17.83;10.97;;;;;;;-2.70;39.96;100408.59;10458938;28;20235;-73
2024/01/10 05:14:47;;;;;;;19.03;11.70;;;;;;;-2.69;39.72;100434.72;10458562;28;20245;-73
2024/01/10 05:19:48;;;;;;;19.27;12.03;;;;;;;-1.37;39.39;100076.38;10453764;28;20342;-73
2024/01/10 05:24:50;;;;;;;24.67;12.70;;;;;;;-1.18;39.07;100086.50;10458878;28;20231;-73
2024/01/10 05:29:52;;;;;;;18.50;12.30;;;;;;;-2.48;40.22;100329.66;10458776;28;20400;-73
2024/01/10 05:34:54;;;;;;;16.07;10.80;;;;;;;-1.88;38.49;100265.00;10460242;28;20312;-73
2024/01/10 05:39:56;;;;;;;15.17;10.43;;;;;;;-1.47;38.82;100107.63;10458304;28;20251;-73
2024/01/10 05:44:57;;;;;;;18.87;10.33;;;;;;;-1.92;39.11;100253.84;10459238;28;20230;-72
2024/01/10 05:49:59;;;;;;;18.07;10.97;;;;;;;-1.42;39.23;100131.78;10452069;28;20238;-72
2024/01/10 05:55:02;;;;;;;19.93;12.50;;;;;;;-1.60;39.35;100160.06;10457348;28;20223;-73
2024/01/10 06:00:09;;;;;;;16.20;11.20;;;;;;;-1.96;39.37;100258.44;10460236;28;20729;-72
2024/01/10 06:05:11;;;;;;;16.53;9.60;;;;;;;-2.17;39.42;100354.09;10460335;28;20241;-72
2024/01/10 06:10:13;;;;;;;11.90;9.50;;;;;;;-0.63;38.33;99980.31;10458941;28;20229;-73
2024/01/10 06:15:15;;;;;;;15.20;9.33;;;;;;;-0.74;37.77;100095.00;10448808;28;20668;-73
2024/01/10 06:20:18;;;;;;;16.33;10.93;;;;;;;-2.12;39.10;100345.06;10454461;28;20322;-73
2024/01/10 06:25:19;;;;;;;18.37;11.27;;;;;;;-2.56;39.16;100479.47;10452455;28;20233;-72
2024/01/10 06:30:21;;;;;;;17.97;10.97;;;;;;;-2.48;39.54;100361.09;10451214;28;20771;-73
2024/01/10 06:35:23;;;;;;;13.43;9.53;;;;;;;-1.98;38.82;100283.94;10453784;28;20300;-73
2024/01/10 06:40:25;;;;;;;17.57;10.67;;;;;;;-1.30;38.81;100103.06;10450335;28;20229;-72
2024/01/10 06:45:26;;;;;;;15.70;10.70;;;;;;;-3.01;39.81;100469.63;10451044;28;20730;-72
2024/01/10 06:50:30;;;;;;;14.93;10.87;;;;;;;-2.42;39.39;100297.84;10449009;28;20310;-73
2024/01/10 06:55:32;;;;;;;19.47;12.30;;;;;;;-3.63;39.97;100588.66;10451735;28;20228;-72
2024/01/10 07:00:33;;;;;;;13.10;9.97;;;;;;;-3.38;40.35;100523.84;10452665;28;20233;-73
2024/01/10 07:05:35;;;;;;;17.83;11.03;;;;;;;-3.14;40.39;100399.53;10452638;28;20720;-72
2024/01/10 07:10:38;;;;;;;17.17;10.53;;;;;;;-2.58;40.18;100203.53;10453205;28;20228;-75
2024/01/10 07:15:40;;;;;;;13.80;9.70;;;;;;;-2.61;39.79;100265.75;10446959;28;20230;-72
2024/01/10 07:20:41;;;;;;;15.80;10.10;;;;;;;-2.26;39.85;100147.53;10458481;28;20330;-73
2024/01/10 07:25:43;;;;;;;15.83;10.73;;;;;;;-3.62;39.91;100555.50;10457635;28;20267;-72
2024/01/10 07:30:45;;;;;;;12.23;9.87;;;;;;;-3.42;40.64;100447.22;10457361;28;20238;-72
2024/01/10 07:35:47;;;;;;;20.73;11.90;;;;;;;-2.52;40.03;100202.34;10457792;28;20218;-72
2024/01/10 07:40:49;;;;;;;17.80;11.17;;;;;;;-3.42;40.12;100478.63;10454319;28;20270;-72
2024/01/10 07:45:50;;;;;;;16.77;9.40;;;;;;;-2.83;39.64;100345.53;10461996;28;20239;-72
2024/01/10 07:50:52;;;;;;;15.13;9.50;;;;;;;-2.14;39.99;100112.69;10449506;28;20250;-73
2024/01/10 07:55:54;;;;;;;18.00;10.77;;;;;;;-2.12;39.33;100166.75;10462158;28;20231;-72
2024/01/10 08:00:55;;;;;;;17.07;11.37;;;;;;;-2.33;39.93;100174.09;10450944;28;20362;-72
2024/01/10 08:05:57;;;;;;;18.00;11.00;;;;;;;-2.53;39.58;100313.34;10452380;28;20263;-72
2024/01/10 08:10:59;;;;;;;13.93;9.70;;;;;;;-2.44;39.42;100304.09;10456513;28;20274;-72
2024/01/10 08:16:00;;;;;;;16.13;11.07;;;;;;;-2.23;39.41;100265.34;10456205;28;20679;-72
2024/01/10 08:21:04;;;;;;;16.60;10.40;;;;;;;-2.50;39.39;100374.28;10451330;28;20273;-75
2024/01/10 08:26:08;;;;;;;22.10;11.60;;;;;;;-2.44;40.08;100306.72;10451129;28;20739;-73
2024/01/10 08:31:12;;;;;;;15.83;10.87;;;;;;;-1.71;39.79;100146.75;10452735;28;20308;-75
2024/01/10 08:36:14;;;;;;;17.37;11.23;;;;;;;-1.12;38.84;100082.66;10451202;28;20255;-72
2024/01/10 08:41:17;;;;;;;16.83;11.13;;;;;;;-1.18;38.59;100152.16;10457547;28;20313;-75
2024/01/10 08:46:18;;;;;;;15.57;10.07;;;;;;;-0.50;37.41;100193.28;10458392;28;20267;-72
2024/01/10 08:51:20;;;;;;;15.63;10.10;;;;;;;-1.22;38.37;100282.84;10462630;28;20262;-73
2024/01/10 08:56:23;;;;;;;15.57;10.63;;;;;;;-0.68;38.19;100137.50;10452920;28;20249;-74
2024/01/10 09:01:25;;;;;;;13.37;9.93;;;;;;;-1.72;38.70;100419.78;10452369;28;20287;-75
2024/01/10 09:06:27;;;;;;;16.97;10.23;;;;;;;0.11;37.29;100092.69;10451953;28;20258;-72
2024/01/10 09:11:29;;;;;;;16.33;10.47;;;;;;;-1.04;37.94;100362.28;10450997;28;20432;-73
2024/01/10 09:16:30;;;;;;;19.93;10.77;;;;;;;0.66;37.15;100070.28;10450851;28;20467;-73
2024/01/10 09:21:32;;;;;;;19.87;11.10;;;;;;;-0.31;37.80;100324.41;10454635;28;20240;-72
2024/01/10 09:26:34;;;;;;;19.00;10.63;;;;;;;-0.46;37.66;100294.69;10448234;28;20257;-73
2024/01/10 09:31:35;;;;;;;17.07;10.73;;;;;;;-0.90;38.76;100279.97;10476333;28;20854;-74
2024/01/10 09:36:37;;;;;;;12.97;9.87;;;;;;;0.76;36.78;100144.19;10449313;28;20263;-73
2024/01/10 09:41:50;;;;;;;15.33;10.00;;;;;;;-0.51;37.80;100396.69;10447307;28;20318;-73
2024/01/10 09:46:54;;;;;;;16.60;10.30;;;;;;;0.04;37.31;100291.41;10456409;28;20242;-73
2024/01/10 09:52:04;;;;;;;17.07;10.40;;;;;;;-0.58;37.44;100492.63;10445730;28;20256;-73
2024/01/10 09:57:06;;;;;;;18.60;11.30;;;;;;;-0.22;37.64;100436.06;10450667;28;20298;-72
2024/01/10 10:02:08;;;;;;;17.10;10.23;;;;;;;1.14;36.88;100201.16;10450450;28;20250;-73
2024/01/10 10:07:10;;;;;;;16.77;10.73;;;;;;;-0.53;37.45;100566.84;10449622;28;20239;-72
2024/01/10 10:12:11;;;;;;;18.67;11.10;;;;;;;0.48;37.63;100205.91;10455989;28;20242;-70
2024/01/10 10:17:17;;;;;;;18.03;10.10;;;;;;;-0.46;37.57;100520.81;10450887;28;20698;-72
2024/01/10 10:22:19;;;;;;;17.23;11.50;;;;;;;0.94;36.73;100362.53;10442794;28;20239;-72
2024/01/10 10:27:21;;;;;;;16.53;10.80;;;;;;;0.04;37.44;100476.50;10444081;28;20224;-72
2024/01/10 10:32:23;;;;;;;15.63;10.77;;;;;;;0.31;37.19;100436.16;10444297;28;20664;-70
2024/01/10 10:37:25;;;;;;;17.03;11.10;;;;;;;0.36;37.08;100447.22;10437983;28;20224;-70
2024/01/10 10:42:30;;;;;;;14.87;11.20;;;;;;;0.42;36.91;100428.38;10445591;28;20245;-72
2024/01/10 10:47:38;;;;;;;16.40;11.37;;;;;;;0.79;36.40;100448.75;10443614;28;20676;-70
2024/01/10 10:52:46;;;;;;;16.07;10.63;;;;;;;1.54;36.53;100226.38;10437015;28;20246;-70
2024/01/10 10:57:49;;;;;;;20.63;11.90;;;;;;;1.37;36.36;100363.00;10436975;28;20219;-72
2024/01/10 11:06:17;;;;;;;22.57;12.27;;;;;;;1.22;36.83;100272.63;10512554;27;20306;-73
2024/01/10 11:11:37;;;;;;;16.10;11.13;;;;;;;2.22;36.06;100208.06;10458660;28;20232;-69
2024/01/10 11:17:18;;;;;;;17.20;11.73;;;;;;;0.78;36.77;100542.78;10432003;28;20262;-70
2024/01/10 11:22:29;;;;;;;18.13;11.60;;;;;;;0.31;36.90;100563.38;10435263;28;20234;-69
2024/01/10 11:27:30;;;;;;;17.57;11.03;;;;;;;0.59;37.14;100469.38;10436016;28;20598;-71
2024/01/10 11:32:33;;;;;;;23.83;12.23;;;;;;;-0.25;37.83;100625.66;10434567;28;20248;-73
2024/01/10 11:37:43;;;;;;;15.77;10.90;;;;;;;-0.03;37.95;100501.50;10434852;28;20231;-70
2024/01/10 11:42:46;;;;;;;16.33;11.53;;;;;;;1.46;36.51;100364.13;10430984;28;20228;-71
2024/01/10 11:47:50;;;;;;;16.37;10.63;;;;;;;1.10;36.80;100429.06;10435753;28;20227;-70
2024/01/10 11:52:53;;;;;;;16.17;11.07;;;;;;;0.49;37.00;100544.69;10480555;28;20228;-71
2024/01/10 11:58:10;;;;;;;17.40;11.87;;;;;;;0.85;37.48;100385.09;10428580;28;20231;-73
2024/01/10 12:03:12;;;;;;;16.50;11.00;;;;;;;0.85;37.40;100358.75;10437760;28;20670;-70
2024/01/10 12:08:15;;;;;;;16.13;11.80;;;;;;;0.99;37.24;100310.34;10439254;28;20738;-71
2024/01/10 12:13:17;;;;;;;16.47;11.23;;;;;;;1.59;36.55;100380.75;10437820;28;20237;-70
2024/01/10 12:18:20;;;;;;;17.43;10.90;;;;;;;-0.19;37.32;100675.25;10409547;28;20243;-70
2024/01/10 12:23:23;;;;;;;17.40;11.00;;;;;;;1.86;36.66;100253.03;10409056;28;20775;-71
2024/01/10 12:28:25;;;;;;;20.60;12.47;;;;;;;1.41;36.69;100374.19;10407662;28;20315;-69
2024/01/10 12:33:26;;;;;;;21.40;12.80;;;;;;;2.27;36.21;100217.31;10405571;28;20539;-71
2024/01/10 12:38:28;;;;;;;19.23;13.03;;;;;;;1.58;36.15;100386.97;10407022;28;20240;-71
2024/01/10 12:43:31;;;;;;;16.37;11.60;;;;;;;2.56;35.91;100316.38;10405950;28;20251;-72
2024/01/10 12:48:36;;;;;;;20.63;12.17;;;;;;;2.10;36.04;100318.94;10406220;28;20293;-70
2024/01/10 12:53:40;;;;;;;18.07;12.40;;;;;;;1.24;37.48;100378.81;10405295;28;20249;-71
2024/01/10 12:58:42;;;;;;;18.20;12.03;;;;;;;0.80;37.18;100490.81;10395833;28;20745;-73
2024/01/10 13:03:44;;;;;;;15.63;11.50;;;;;;;1.61;36.39;100517.84;10405202;28;20336;-72
2024/01/10 13:08:46;;;;;;;18.43;12.00;;;;;;;2.97;34.92;100259.44;10405630;28;20258;-72
2024/01/10 13:13:47;;;;;;;19.50;13.83;;;;;;;1.17;36.92;100483.03;10405471;28;20236;-73
2024/01/10 13:18:50;;;;;;;17.63;11.87;;;;;;;2.55;35.83;100402.72;10403682;28;20618;-73
2024/01/10 13:23:52;;;;;;;17.77;11.90;;;;;;;1.14;36.92;100535.97;10405381;28;20263;-72
2024/01/10 13:28:54;;;;;;;18.30;12.23;;;;;;;1.77;36.67;100390.91;10403454;28;20257;-72
2024/01/10 13:33:56;;;;;;;22.80;16.00;;;;;;;2.99;34.99;100437.31;10404893;28;20240;-68
2024/01/10 13:38:57;;;;;;;72.73;32.20;;;;;;;2.19;36.71;100330.59;10404233;28;20238;-72
2024/01/10 13:43:59;;;;;;;70.63;39.07;;;;;;;2.31;35.94;100408.91;10403303;28;20241;-72
2024/01/10 13:49:01;;;;;;;18.93;13.87;;;;;;;3.07;35.46;100287.69;10403768;28;20720;-71
2024/01/10 13:54:03;;;;;;;21.23;12.03;;;;;;;1.69;36.40;100496.19;10403546;28;20242;-73
2024/01/10 13:59:04;;;;;;;16.57;12.50;;;;;;;2.35;36.11;100401.63;10403256;28;20257;-72
2024/01/10 14:04:06;;;;;;;17.57;11.80;;;;;;;2.10;36.43;100484.44;10418238;28;20237;-72
2024/01/10 14:09:10;;;;;;;19.67;12.80;;;;;;;2.01;36.15;100446.34;10402447;28;20259;-72
2024/01/10 14:14:11;;;;;;;142.37;89.03;;;;;;;2.07;36.46;100472.31;10402313;28;20757;-72
2024/01/10 14:19:13;;;;;;;18.40;13.53;;;;;;;2.42;36.21;100408.09;10402831;28;20236;-72
2024/01/10 14:24:15;;;;;;;18.63;13.13;;;;;;;2.48;36.61;100324.91;10402298;28;20229;-72
2024/01/10 14:29:17;;;;;;;18.47;12.40;;;;;;;2.78;36.16;100353.38;10400111;28;20234;-72
2024/01/10 14:34:18;;;;;;;17.70;12.43;;;;;;;1.86;36.56;100495.84;10401883;28;20234;-72
2024/01/10 14:39:21;;;;;;;16.77;10.87;;;;;;;2.93;35.67;100350.56;10396601;28;20335;-70
2024/01/10 14:44:23;;;;;;;17.70;12.73;;;;;;;2.15;36.54;100477.03;10384261;28;20238;-73
2024/01/10 14:49:25;;;;;;;15.60;11.57;;;;;;;2.44;36.22;100402.72;10412212;28;20726;-70
2024/01/10 14:54:27;;;;;;;20.63;15.03;;;;;;;2.19;36.13;100493.50;10438567;28;20281;-71
2024/01/10 14:59:29;;;;;;;16.00;12.47;;;;;;;2.73;35.61;100432.19;10438407;28;20239;-69
2024/01/10 15:04:45;;;;;;;17.77;11.93;;;;;;;2.34;36.28;100500.28;10432047;28;20720;-68
2024/01/10 15:09:47;;;;;;;15.50;11.97;;;;;;;2.46;35.67;100472.13;10439977;28;20725;-76
2024/01/10 15:14:48;;;;;;;19.50;13.63;;;;;;;2.88;35.79;100386.06;10434834;28;20592;-70
2024/01/10 15:19:50;;;;;;;16.70;11.23;;;;;;;1.24;36.77;100684.69;10438055;28;20309;-71
2024/01/10 15:24:52;;;;;;;16.50;11.60;;;;;;;2.31;36.77;100455.59;10436913;28;20252;-71
2024/01/10 15:29:54;;;;;;;21.07;13.03;;;;;;;1.60;36.64;100653.34;10440352;28;20238;-70
2024/01/10 15:35:07;;;;;;;19.47;12.07;;;;;;;0.76;37.77;100773.03;10440516;28;20297;-71
2024/01/10 15:40:13;;;;;;;18.37;11.97;;;;;;;1.74;37.19;100523.09;10441508;28;20274;-70
2024/01/10 15:45:15;;;;;;;19.53;13.67;;;;;;;1.54;36.77;100567.56;10437505;28;20242;-80
2024/01/10 15:50:17;;;;;;;20.17;12.77;;;;;;;1.30;37.48;100621.94;10445255;28;20232;-71
2024/01/10 15:55:19;;;;;;;16.57;11.63;;;;;;;2.64;36.36;100369.50;10445664;28;20226;-69
2024/01/10 16:00:20;;;;;;;18.10;12.17;;;;;;;1.66;36.97;100589.59;10447014;28;20315;-70
2024/01/10 16:05:24;;;;;;;19.93;12.53;;;;;;;2.38;36.70;100397.88;10419614;28;20237;-71
2024/01/10 16:10:26;;;;;;;17.60;12.23;;;;;;;1.99;36.81;100553.84;10405512;28;20713;-69
2024/01/10 16:15:30;;;;;;;18.40;12.07;;;;;;;1.64;37.50;100450.81;10357599;22;20748;-35
2024/01/10 16:20:32;;;;;;;19.80;12.43;;;;;;;1.84;37.12;100500.34;10301959;28;20242;-34
2024/01/10 16:25:34;;;;;;;21.40;12.57;;;;;;;0.77;38.25;100622.75;10325967;28;20246;-34
2024/01/10 16:30:35;;;;;;;30.90;19.90;;;;;;;1.12;37.70;100561.59;10324471;28;20797;-34
2024/01/10 16:35:37;;;;;;;21.00;13.10;;;;;;;0.30;38.25;100688.03;10324396;28;20744;-34
2024/01/10 16:40:39;;;;;;;21.73;14.30;;;;;;;0.76;38.42;100507.75;10322859;28;20258;-34
2024/01/10 16:45:41;;;;;;;17.47;11.97;;;;;;;1.68;37.52;100328.28;10322973;28;20790;-34
2024/01/10 16:50:43;;;;;;;19.13;13.37;;;;;;;0.95;38.51;100428.31;10323416;28;20233;-34
2024/01/10 16:55:45;;;;;;;19.40;13.03;;;;;;;0.94;38.35;100476.69;10324165;28;20249;-34
2024/01/10 17:00:48;;;;;;;19.07;12.97;;;;;;;0.77;38.68;100445.38;10321225;28;20329;-34
2024/01/10 17:05:49;;;;;;;17.67;12.37;;;;;;;0.87;38.95;100384.03;10325479;28;20249;-34
2024/01/10 17:10:51;;;;;;;17.37;12.13;;;;;;;0.93;39.04;100351.13;10319901;28;20641;-35
2024/01/10 17:15:53;;;;;;;19.33;13.23;;;;;;;0.02;39.27;100582.78;10316721;28;20240;-34
2024/01/10 17:20:55;;;;;;;16.73;13.53;;;;;;;1.05;38.41;100424.09;10318726;28;20808;-35
2024/01/10 17:25:57;;;;;;;18.87;13.27;;;;;;;1.41;38.06;100339.88;10321056;28;20247;-34
2024/01/10 17:30:58;;;;;;;22.27;14.93;;;;;;;0.58;39.40;100414.16;10317506;28;20312;-35
2024/01/10 17:36:00;;;;;;;19.13;13.50;;;;;;;0.57;39.46;100415.97;10322251;28;20773;-35
2024/01/10 17:41:02;;;;;;;21.13;13.50;;;;;;;0.05;39.77;100582.59;10319811;28;20315;-35
2024/01/10 17:46:04;;;;;;;27.40;13.07;;;;;;;0.59;39.83;100361.38;10328521;28;20564;-34
2024/01/10 17:51:05;;;;;;;21.80;14.73;;;;;;;0.90;38.80;100390.03;10321569;28;20226;-35
2024/01/10 17:56:07;;;;;;;22.63;14.67;;;;;;;0.33;39.93;100422.91;10318180;28;20247;-34
2024/01/10 18:01:09;;;;;;;19.57;14.33;;;;;;;0.99;39.15;100287.47;10316191;28;20241;-34
2024/01/10 18:06:11;;;;;;;19.23;13.97;;;;;;;0.59;39.43;100398.25;10322933;28;20324;-35
2024/01/10 18:11:13;;;;;;;20.60;13.90;;;;;;;-0.55;40.49;100510.03;10341145;28;20288;-35
2024/01/10 18:16:14;;;;;;;20.50;14.13;;;;;;;-1.63;41.33;100719.31;10339318;28;20241;-34
2024/01/10 18:21:17;;;;;;;19.37;13.67;;;;;;;-0.31;40.02;100482.22;10319098;28;20277;-34
2024/01/10 18:26:19;;;;;;;17.10;11.97;;;;;;;-1.21;41.95;100428.97;10321464;28;20269;-35
2024/01/10 18:31:21;;;;;;;19.97;13.40;;;;;;;-1.20;41.97;100387.78;10317777;28;20241;-34
2024/01/10 18:36:22;;;;;;;23.57;14.57;;;;;;;-1.39;41.92;100435.31;10320800;28;20252;-34
2024/01/10 18:41:25;;;;;;;19.07;12.80;;;;;;;-2.05;42.29;100606.97;10318503;28;20340;-34
2024/01/10 18:46:27;;;;;;;20.20;14.87;;;;;;;-1.86;42.50;100501.91;10321133;28;20240;-35
2024/01/10 18:51:29;;;;;;;21.57;13.60;;;;;;;-2.00;42.91;100503.53;10318187;28;20240;-35
2024/01/10 18:56:31;;;;;;;18.73;13.37;;;;;;;-1.78;41.95;100531.19;10319396;28;20628;-34
2024/01/10 19:01:32;;;;;;;19.40;12.03;;;;;;;-1.40;41.71;100446.75;10315017;28;20243;-34
2024/01/10 19:06:35;;;;;;;17.90;12.73;;;;;;;-1.44;41.72;100419.00;10314770;28;20327;-35
2024/01/10 19:11:36;;;;;;;19.47;12.67;;;;;;;-1.98;41.85;100569.84;10313620;28;20252;-34
2024/01/10 19:16:41;;;;;;;19.20;13.70;;;;;;;-1.11;41.36;100337.34;10320099;28;20900;-42
2024/01/10 19:21:43;;;;;;;16.70;12.90;;;;;;;-1.42;41.76;100377.75;10313458;28;20250;-44
2024/01/10 19:26:45;;;;;;;29.37;14.57;;;;;;;-2.17;42.26;100588.38;10327851;28;20260;-42
2024/01/10 19:31:47;;;;;;;23.27;13.97;;;;;;;-1.33;41.83;100361.41;10332888;28;20719;-43
2024/01/10 19:36:49;;;;;;;20.90;13.83;;;;;;;-1.62;41.55;100469.00;10328513;28;20263;-41
2024/01/10 19:41:52;;;;;;;20.70;14.57;;;;;;;-1.26;41.50;100347.00;10325150;28;20698;-38
2024/01/10 19:46:54;;;;;;;17.90;13.30;;;;;;;-1.68;41.80;100414.25;10326898;28;20754;-34
2024/01/10 19:51:56;;;;;;;20.80;12.17;;;;;;;-1.16;41.22;100331.50;10322271;28;20243;-38
2024/01/10 19:56:58;;;;;;;20.13;13.93;;;;;;;-1.56;41.52;100399.56;10325402;28;20248;-41
2024/01/10 20:02:00;;;;;;;21.33;13.83;;;;;;;-1.68;41.68;100444.88;10320108;28;20244;-40
2024/01/10 20:07:02;;;;;;;19.73;12.90;;;;;;;-2.51;42.12;100670.53;10329026;28;20264;-41
2024/01/10 20:12:04;;;;;;;21.93;13.97;;;;;;;-1.75;42.37;100395.41;10328104;28;20654;-40
2024/01/10 20:17:06;;;;;;;22.47;14.20;;;;;;;-2.38;42.33;100569.38;10331701;28;20722;-39
2024/01/10 20:22:08;;;;;;;22.53;14.00;;;;;;;-1.56;41.76;100361.03;10331070;28;20240;-44
2024/01/10 20:27:10;;;;;;;19.40;12.93;;;;;;;-1.30;41.39;100340.22;10330746;28;20693;-39
2024/01/10 20:32:13;;;;;;;22.47;14.20;;;;;;;-1.47;41.76;100359.63;10328849;28;20241;-43
2024/01/10 20:37:16;;;;;;;22.73;14.63;;;;;;;-1.99;41.83;100493.88;10332036;28;20240;-41
2024/01/10 20:42:19;;;;;;;22.83;14.47;;;;;;;-0.96;41.17;100263.75;10328380;28;20684;-42
2024/01/10 20:47:26;;;;;;;20.00;12.57;;;;;;;-2.06;41.98;100497.75;10333062;28;20622;-43
2024/01/10 20:52:28;;;;;;;21.87;13.97;;;;;;;-1.61;42.20;100346.50;10327996;28;20660;-40
2024/01/10 20:57:30;;;;;;;23.03;13.90;;;;;;;-2.74;43.09;100601.81;10321880;28;20241;-42
2024/01/10 21:02:33;;;;;;;20.30;12.23;;;;;;;-1.97;43.15;100327.59;10318874;28;20240;-40
2024/01/10 21:07:35;;;;;;;18.93;14.00;;;;;;;-1.70;41.89;100373.28;10324822;28;20715;-42
2024/01/10 21:12:37;;;;;;;19.20;14.17;;;;;;;-2.40;42.77;100536.31;10322367;28;20332;-42
2024/01/10 21:17:38;;;;;;;20.80;13.30;;;;;;;-0.84;41.07;100234.91;10351810;28;20666;-43
2024/01/10 21:22:41;;;;;;;19.43;13.20;;;;;;;-2.43;42.63;100562.69;10317547;28;20234;-41
2024/01/10 21:27:42;;;;;;;21.47;14.13;;;;;;;-2.02;42.45;100454.69;10318326;28;20345;-41
2024/01/10 21:32:44;;;;;;;19.37;13.43;;;;;;;-1.62;42.28;100319.41;10319128;28;20265;-40
2024/01/10 21:37:46;;;;;;;22.30;13.93;;;;;;;-1.32;41.53;100307.97;10322687;28;20247;-41
2024/01/10 21:42:52;;;;;;;25.80;14.10;;;;;;;-1.62;42.51;100308.91;10313156;28;20225;-40
2024/01/10 21:47:54;;;;;;;21.27;13.80;;;;;;;-2.40;43.03;100484.72;10361829;28;20259;-41
2024/01/10 21:52:56;;;;;;;19.80;13.47;;;;;;;-1.39;42.14;100257.63;10360778;28;20242;-40
2024/01/10 21:57:58;;;;;;;23.20;14.07;;;;;;;-1.24;41.90;100283.88;10359071;28;20214;-39
2024/01/10 22:02:59;;;;;;;26.33;14.87;;;;;;;-1.46;41.57;100339.47;10362347;28;20305;-41
2024/01/10 22:08:02;;;;;;;23.13;15.13;;;;;;;-1.39;42.48;100257.63;10361515;28;20573;-35
2024/01/10 22:13:07;;;;;;;21.33;13.67;;;;;;;-1.36;41.71;100303.88;10359762;28;20256;-38
2024/01/10 22:18:09;;;;;;;21.37;14.10;;;;;;;-1.51;41.23;100444.78;10349339;28;20256;-40
2024/01/10 22:23:11;;;;;;;24.07;15.13;;;;;;;-1.87;42.28;100448.56;10335076;28;20256;-40
2024/01/10 22:28:13;;;;;;;23.03;14.63;;;;;;;-0.99;41.50;100268.25;10383198;28;20344;-41
2024/01/10 22:33:14;;;;;;;21.07;13.30;;;;;;;-1.94;42.44;100463.81;10343290;28;20268;-38
2024/01/10 22:38:16;;;;;;;26.30;14.97;;;;;;;-2.13;42.22;100560.19;10349214;28;20693;-38
2024/01/10 22:43:18;;;;;;;25.13;15.10;;;;;;;-0.64;40.83;100322.13;10351651;28;20292;-41
2024/01/10 22:48:20;;;;;;;21.90;14.93;;;;;;;-0.67;41.30;100209.28;10316540;28;20711;-37
2024/01/10 22:53:22;;;;;;;23.63;15.87;;;;;;;-0.42;40.86;100211.16;10316651;28;20563;-36